Time;durP1;ratioP1;P1;durP2;ratioP2;P2;SDS_P1;SDS_P2;PMS_P1;PMS_P2;Temp;Humidity;BMP_temperature;BMP_pressure;BME280_temperature;BME280_humidity;BME280_pressure;Samples;Min_cycle;Max_cycle;Signal;HPM_P1;HPM_P2
2023/05/11 00:46:03;;;;;;;1.77;0.80;;;;;;;12.42;91.01;95384.41;5129328;23;20242;-91
2023/05/11 00:48:30;;;;;;;2.23;1.00;;;;;;;12.38;91.18;95393.50;5003853;28;20667;-90
2023/05/11 00:50:59;;;;;;;0.90;0.90;;;;;;;12.28;91.89;95385.34;4996539;28;20204;-90
2023/05/11 00:53:26;;;;;;;1.43;0.90;;;;;;;12.20;92.30;95388.06;5007834;28;20200;-92
2023/05/11 00:55:58;;;;;;;1.03;0.93;;;;;;;12.27;92.13;95388.91;5000230;28;20206;-92
2023/05/11 00:58:29;;;;;;;0.90;0.83;;;;;;;12.22;92.11;95393.84;5001171;28;20194;-92
2023/05/11 01:01:06;;;;;;;1.93;0.90;;;;;;;12.31;91.78;95392.69;5010205;28;20785;-91
2023/05/11 01:03:38;;;;;;;1.10;0.90;;;;;;;12.38;91.62;95390.94;5001083;28;20198;-93
2023/05/11 01:06:16;;;;;;;1.70;0.90;;;;;;;12.40;91.53;95394.13;5000093;28;20195;-93
2023/05/11 01:08:46;;;;;;;0.90;0.90;;;;;;;12.36;91.46;95390.31;5000106;28;20215;-93
2023/05/11 01:11:21;;;;;;;2.07;1.10;;;;;;;12.29;91.76;95394.69;5006341;28;20620;-92
2023/05/11 01:13:54;;;;;;;2.07;1.10;;;;;;;12.39;92.40;95389.94;5002015;28;20210;-92
2023/05/11 01:16:24;;;;;;;0.83;0.80;;;;;;;12.43;91.67;95384.19;5002219;28;20230;-91
2023/05/11 01:18:55;;;;;;;1.80;0.90;;;;;;;12.48;91.65;95380.25;5000852;28;20227;-92
2023/05/11 01:21:26;;;;;;;1.07;0.97;;;;;;;12.54;91.12;95382.03;5002050;28;20953;-91
2023/05/11 01:24:26;;;;;;;0.83;0.83;;;;;;;12.53;90.56;95383.03;5001254;28;20206;-92
2023/05/11 01:27:19;;;;;;;1.63;1.10;;;;;;;12.34;90.17;95380.19;5000545;28;20231;-92
2023/05/11 01:30:25;;;;;;;4.33;0.90;;;;;;;12.30;90.83;95379.00;5001981;28;20222;-92
2023/05/11 01:33:05;;;;;;;0.80;0.80;;;;;;;12.14;91.22;95376.72;4952486;28;20200;-91
2023/05/11 01:35:35;;;;;;;0.80;0.80;;;;;;;12.16;91.86;95374.72;4952115;28;20214;-92
2023/05/11 01:38:12;;;;;;;0.93;0.80;;;;;;;12.26;91.49;95379.56;5002142;28;20203;-91
2023/05/11 01:40:42;;;;;;;1.37;0.93;;;;;;;12.27;91.45;95379.38;5002813;28;20241;-92
2023/05/11 01:43:17;;;;;;;1.63;1.03;;;;;;;12.20;91.20;95378.53;5001959;28;20695;-92
2023/05/11 01:45:50;;;;;;;1.33;0.87;;;;;;;12.24;91.01;95378.97;5002737;28;20260;-92
2023/05/11 01:48:25;;;;;;;1.13;0.90;;;;;;;12.29;91.15;95374.03;5000845;28;20656;-91
2023/05/11 01:50:53;;;;;;;2.83;1.00;;;;;;;12.25;91.25;95372.81;4997682;28;20285;-93
2023/05/11 01:53:22;;;;;;;1.47;1.17;;;;;;;12.26;91.12;95370.03;5001028;28;20191;-92
2023/05/11 01:55:59;;;;;;;1.90;0.80;;;;;;;12.25;91.55;95371.03;5002353;28;20278;-92
2023/05/11 01:58:33;;;;;;;1.73;0.90;;;;;;;12.29;91.08;95369.66;5000881;28;20202;-93
2023/05/11 02:01:07;;;;;;;0.80;0.80;;;;;;;12.22;90.62;95380.94;5004123;28;20845;-91
2023/05/11 02:03:41;;;;;;;0.80;0.80;;;;;;;12.26;91.48;95380.38;5002514;28;20207;-93
2023/05/11 02:06:14;;;;;;;1.50;0.80;;;;;;;12.21;91.18;95369.81;5003547;28;20804;-91
2023/05/11 02:08:41;;;;;;;1.23;0.70;;;;;;;12.16;90.70;95372.16;5004630;28;20604;-92
2023/05/11 02:11:11;;;;;;;1.67;0.87;;;;;;;12.17;91.49;95378.13;5003654;28;20195;-91
2023/05/11 02:13:40;;;;;;;0.93;0.90;;;;;;;12.19;91.02;95381.31;5001640;28;20203;-92
2023/05/11 02:16:09;;;;;;;0.70;0.70;;;;;;;12.18;91.56;95377.13;5002119;28;20203;-91
2023/05/11 02:18:40;;;;;;;2.50;0.80;;;;;;;12.19;91.08;95376.94;5001303;28;20199;-92
2023/05/11 02:21:08;;;;;;;1.70;0.93;;;;;;;12.12;90.60;95375.34;4994787;28;20223;-92
2023/05/11 02:23:37;;;;;;;0.83;0.80;;;;;;;12.00;91.28;95370.69;5001815;28;20229;-93
2023/05/11 02:26:07;;;;;;;1.37;0.90;;;;;;;12.06;91.35;95367.34;5010187;28;20195;-92
2023/05/11 02:28:36;;;;;;;1.97;1.10;;;;;;;12.18;91.28;95372.75;5001367;28;20207;-92
2023/05/11 02:31:08;;;;;;;0.90;0.80;;;;;;;12.25;90.80;95368.44;5001635;28;20196;-91
2023/05/11 02:33:53;;;;;;;1.03;0.90;;;;;;;12.31;90.47;95364.31;4998092;28;20211;-91
2023/05/11 02:36:23;;;;;;;3.20;1.10;;;;;;;12.29;90.10;95369.66;4995306;28;20191;-91
2023/05/11 02:38:58;;;;;;;0.80;0.70;;;;;;;12.19;90.32;95365.81;5003885;28;20211;-91
2023/05/11 02:41:27;;;;;;;1.00;0.90;;;;;;;12.19;90.16;95365.81;5007424;28;20218;-92
2023/05/11 02:44:05;;;;;;;1.87;0.97;;;;;;;12.12;89.95;95359.84;5001633;28;20202;-91
2023/05/11 02:46:38;;;;;;;4.33;1.10;;;;;;;12.05;90.65;95364.97;4998741;28;20704;-93
2023/05/11 02:49:13;;;;;;;0.87;0.87;;;;;;;12.01;90.79;95356.81;4998501;28;20214;-91
2023/05/11 02:51:45;;;;;;;0.87;0.70;;;;;;;11.97;91.07;95365.91;4997793;28;20282;-92
2023/05/11 02:54:14;;;;;;;0.83;0.73;;;;;;;12.06;90.69;95361.41;4999702;28;20744;-92
2023/05/11 02:56:41;;;;;;;0.93;0.73;;;;;;;12.01;90.86;95366.31;4998872;28;20194;-91
2023/05/11 02:59:08;;;;;;;0.70;0.70;;;;;;;12.03;91.76;95354.84;4998125;28;20713;-91
2023/05/11 03:01:35;;;;;;;0.70;0.70;;;;;;;12.03;91.06;95364.34;5006773;28;20696;-94
2023/05/11 03:04:04;;;;;;;0.80;0.80;;;;;;;12.04;91.19;95366.75;4999032;28;20195;-92
2023/05/11 03:06:36;;;;;;;1.13;0.83;;;;;;;12.04;91.32;95361.59;4999261;28;20231;-93
2023/05/11 03:09:06;;;;;;;1.17;0.87;;;;;;;11.98;90.24;95357.19;5015187;23;20246;-91
2023/05/11 03:11:42;;;;;;;2.67;0.80;;;;;;;12.02;90.96;95360.19;5001025;28;20195;-92
2023/05/11 03:14:12;;;;;;;1.07;0.80;;;;;;;12.00;91.46;95357.78;4997870;28;20692;-91
2023/05/11 03:16:40;;;;;;;1.07;1.07;;;;;;;12.02;91.18;95355.03;4999756;28;20470;-92
2023/05/11 03:19:07;;;;;;;1.60;0.70;;;;;;;11.93;91.04;95354.38;4998161;28;20302;-92
2023/05/11 03:21:38;;;;;;;0.63;0.63;;;;;;;11.94;91.90;95358.53;4987271;28;20728;-92
2023/05/11 03:24:09;;;;;;;0.70;0.70;;;;;;;11.86;91.02;95353.53;4988670;28;20211;-92
2023/05/11 03:26:36;;;;;;;0.70;0.70;;;;;;;11.84;91.90;95357.31;4988593;28;20199;-92
2023/05/11 03:29:06;;;;;;;0.60;0.60;;;;;;;11.88;91.59;95348.19;4981115;28;20230;-92
2023/05/11 03:31:36;;;;;;;0.60;0.60;;;;;;;11.82;91.69;95356.69;4975499;28;20291;-92
2023/05/11 03:34:02;;;;;;;0.87;0.70;;;;;;;11.81;91.67;95347.34;4981574;28;20216;-91
2023/05/11 03:39:14;;;;;;;1.40;0.70;;;;;;;11.81;91.43;95350.72;4979975;28;20619;-92
2023/05/11 03:41:42;;;;;;;0.50;0.50;;;;;;;11.60;92.26;95346.41;4978199;28;20220;-91
2023/05/11 03:44:11;;;;;;;0.70;0.70;;;;;;;11.62;92.85;95339.28;4981371;28;20206;-91
2023/05/11 03:46:45;;;;;;;0.63;0.63;;;;;;;11.63;92.53;95342.66;4984719;28;20204;-92
2023/05/11 03:49:12;;;;;;;0.70;0.70;;;;;;;11.57;92.87;95343.41;4975896;28;20220;-92
2023/05/11 03:51:39;;;;;;;0.90;0.73;;;;;;;11.61;92.83;95347.19;4974080;28;20208;-93
2023/05/11 03:54:08;;;;;;;1.30;0.70;;;;;;;11.50;93.12;95348.53;4986393;28;20207;-93
2023/05/11 03:56:44;;;;;;;1.10;0.70;;;;;;;11.55;93.42;95338.44;4980431;28;20269;-92
2023/05/11 03:59:14;;;;;;;1.47;0.80;;;;;;;11.49;93.49;95338.41;4971769;28;20233;-92
2023/05/11 04:01:42;;;;;;;0.60;0.60;;;;;;;11.56;93.57;95340.03;4980202;28;20886;-91
2023/05/11 04:04:08;;;;;;;0.63;0.63;;;;;;;11.52;92.91;95338.81;4981162;28;20491;-91
2023/05/11 04:06:35;;;;;;;0.97;0.83;;;;;;;11.53;93.42;95339.63;4984420;28;20203;-91
2023/05/11 04:09:04;;;;;;;0.90;0.90;;;;;;;11.58;93.92;95342.41;4979480;28;20251;-91
2023/05/11 04:11:30;;;;;;;1.60;0.70;;;;;;;11.46;93.63;95341.34;4980911;28;20220;-91
2023/05/11 04:13:58;;;;;;;0.70;0.70;;;;;;;11.45;94.02;95337.97;4984199;28;20228;-91
2023/05/11 04:16:25;;;;;;;0.70;0.67;;;;;;;11.46;93.72;95347.31;4988365;28;20903;-91
2023/05/11 04:18:51;;;;;;;0.87;0.77;;;;;;;11.54;93.69;95336.06;4987277;28;20227;-91
2023/05/11 04:21:18;;;;;;;0.60;0.60;;;;;;;11.63;92.65;95332.34;4986358;28;20658;-91
2023/05/11 04:23:55;;;;;;;1.27;0.90;;;;;;;11.55;92.57;95335.84;4980778;28;20203;-90
2023/05/11 04:26:21;;;;;;;0.60;0.60;;;;;;;11.56;93.53;95328.91;4981052;28;20203;-91
2023/05/11 04:28:48;;;;;;;0.70;0.70;;;;;;;11.51;93.59;95334.66;4979168;28;20600;-91
2023/05/11 04:31:16;;;;;;;1.10;0.80;;;;;;;11.50;93.24;95338.22;4978551;28;20211;-90
2023/05/11 04:33:42;;;;;;;1.57;0.70;;;;;;;11.57;93.29;95343.41;4980788;28;20192;-91
2023/05/11 04:36:09;;;;;;;0.60;0.60;;;;;;;11.53;92.47;95342.22;4987476;28;20279;-90
2023/05/11 04:38:36;;;;;;;2.13;0.70;;;;;;;11.51;93.01;95341.59;4976013;28;20231;-90
2023/05/11 04:41:03;;;;;;;0.80;0.50;;;;;;;11.52;92.84;95346.56;4976887;28;20196;-92
2023/05/11 04:43:30;;;;;;;0.60;0.60;;;;;;;11.56;93.01;95345.19;4989415;28;20207;-90
2023/05/11 04:45:58;;;;;;;1.17;0.70;;;;;;;11.63;93.94;95342.66;4989735;28;20211;-90
2023/05/11 04:48:26;;;;;;;0.70;0.70;;;;;;;11.61;93.19;95348.00;4989509;28;20196;-91
2023/05/11 04:50:53;;;;;;;0.70;0.70;;;;;;;11.57;92.92;95343.41;4992059;28;20261;-91
2023/05/11 04:53:22;;;;;;;1.20;0.77;;;;;;;11.60;92.51;95341.25;4987410;28;20200;-90
2023/05/11 04:55:55;;;;;;;0.57;0.57;;;;;;;11.53;92.71;95345.59;4988361;28;20727;-91
2023/05/11 04:58:21;;;;;;;0.60;0.60;;;;;;;11.52;92.42;95351.72;4992248;28;20210;-90
2023/05/11 05:00:48;;;;;;;1.10;0.50;;;;;;;11.51;93.29;95347.56;4999231;28;20644;-91
2023/05/11 05:03:14;;;;;;;0.90;0.70;;;;;;;11.46;93.28;95355.03;4972897;28;20232;-92
2023/05/11 05:05:46;;;;;;;0.60;0.60;;;;;;;11.49;93.73;95352.09;4974690;28;20204;-90
2023/05/11 05:08:22;;;;;;;0.73;0.73;;;;;;;11.53;93.43;95355.91;4973762;28;20255;-91
2023/05/11 05:10:48;;;;;;;0.53;0.53;;;;;;;11.49;93.22;95349.50;4990139;28;20215;-91
2023/05/11 05:13:16;;;;;;;1.23;0.80;;;;;;;11.50;93.19;95348.53;4991429;28;20207;-92
2023/05/11 05:15:42;;;;;;;1.40;0.60;;;;;;;11.49;93.25;95351.28;4998000;28;20200;-92
2023/05/11 05:18:09;;;;;;;0.70;0.70;;;;;;;11.53;92.93;95350.75;4995550;28;20203;-90
2023/05/11 05:20:39;;;;;;;1.33;0.70;;;;;;;11.46;92.60;95361.97;4995256;28;20223;-91
2023/05/11 05:23:21;;;;;;;1.33;0.60;;;;;;;11.42;92.37;95353.81;4994306;28;20230;-92
2023/05/11 05:25:47;;;;;;;0.67;0.50;;;;;;;11.28;92.63;95357.28;4997565;28;20203;-91
2023/05/11 05:28:14;;;;;;;1.50;1.27;;;;;;;11.32;94.19;95354.16;5000950;28;20218;-90
2023/05/11 05:30:40;;;;;;;4.23;3.77;;;;;;;11.36;93.79;95359.69;5003034;28;20278;-91
2023/05/11 05:33:11;;;;;;;0.80;0.80;;;;;;;11.33;93.43;95360.09;5001414;28;20223;-91
2023/05/11 05:35:42;;;;;;;0.60;0.60;;;;;;;11.38;93.78;95363.69;5006397;28;20307;-91
2023/05/11 05:38:20;;;;;;;3.40;0.80;;;;;;;11.47;93.68;95359.22;5005070;28;20250;-92
2023/05/11 05:40:51;;;;;;;0.83;0.70;;;;;;;11.38;93.04;95370.63;5008560;28;20262;-92
2023/05/11 05:43:33;;;;;;;1.27;0.60;;;;;;;11.33;93.57;95366.06;5002493;28;20273;-92
2023/05/11 05:46:08;;;;;;;0.60;0.60;;;;;;;11.41;94.06;95362.53;5005984;28;20201;-92
2023/05/11 05:48:44;;;;;;;0.60;0.60;;;;;;;11.52;93.62;95363.81;5005453;28;20624;-90
2023/05/11 05:51:16;;;;;;;0.63;0.63;;;;;;;11.46;92.33;95361.97;5003308;28;20207;-92
2023/05/11 05:53:50;;;;;;;1.97;0.90;;;;;;;11.34;93.58;95365.06;5002182;28;20286;-91
2023/05/11 05:56:26;;;;;;;1.43;1.00;;;;;;;11.41;93.95;95365.91;5005819;28;20216;-91
2023/05/11 05:59:01;;;;;;;1.63;1.00;;;;;;;11.48;93.54;95365.16;5002214;28;20219;-91
2023/05/11 06:01:44;;;;;;;1.07;0.97;;;;;;;11.36;93.41;95365.66;4999251;28;20283;-91
2023/05/11 06:04:16;;;;;;;1.33;0.90;;;;;;;11.39;94.04;95364.50;5000609;28;20191;-91
2023/05/11 06:06:51;;;;;;;1.77;1.10;;;;;;;11.41;93.95;95363.31;4999156;28;20207;-91
2023/05/11 06:09:19;;;;;;;1.33;0.77;;;;;;;11.35;93.75;95366.63;4993832;28;20231;-91
2023/05/11 06:11:45;;;;;;;0.73;0.70;;;;;;;11.37;93.52;95364.69;4990848;28;20805;-92
2023/05/11 06:14:13;;;;;;;1.23;0.80;;;;;;;11.50;93.14;95368.34;4993232;28;20227;-92
2023/05/11 06:16:40;;;;;;;0.80;0.70;;;;;;;11.50;93.30;95366.56;4996434;28;20200;-93
2023/05/11 06:19:07;;;;;;;1.40;1.03;;;;;;;11.48;93.32;95370.31;5000547;28;20581;-91
2023/05/11 06:21:34;;;;;;;3.07;2.53;;;;;;;11.47;94.19;95371.31;4995976;28;20287;-91
2023/05/11 06:24:04;;;;;;;0.80;0.80;;;;;;;11.49;93.71;95371.91;4997598;28;20286;-91
2023/05/11 06:26:32;;;;;;;0.80;0.50;;;;;;;11.39;93.44;95372.22;4994403;28;20231;-91
2023/05/11 06:28:58;;;;;;;0.60;0.60;;;;;;;11.29;94.38;95379.50;4998146;28;20223;-90
2023/05/11 06:31:25;;;;;;;1.53;0.73;;;;;;;11.27;95.23;95376.31;4996422;28;20203;-91
2023/05/11 06:33:52;;;;;;;0.90;0.90;;;;;;;11.31;95.59;95370.59;4998867;28;20254;-92
2023/05/11 06:36:24;;;;;;;0.60;0.60;;;;;;;11.24;95.06;95374.88;4996586;28;20230;-92
2023/05/11 06:38:51;;;;;;;0.70;0.70;;;;;;;11.25;96.02;95375.69;4997838;28;20220;-93
2023/05/11 06:41:17;;;;;;;0.57;0.57;;;;;;;11.29;95.38;95375.13;4996088;28;20220;-91
2023/05/11 06:43:45;;;;;;;0.90;0.50;;;;;;;11.38;95.64;95384.31;4996523;28;20231;-91
2023/05/11 06:46:16;;;;;;;0.60;0.60;;;;;;;11.41;95.16;95373.63;4995507;28;20681;-91
2023/05/11 06:48:45;;;;;;;0.70;0.70;;;;;;;11.44;94.67;95372.47;4996181;28;20207;-92
2023/05/11 06:51:15;;;;;;;1.80;1.20;;;;;;;11.45;95.22;95378.44;4989940;28;20235;-91
2023/05/11 06:53:42;;;;;;;2.43;1.97;;;;;;;11.53;96.53;95373.16;4997181;28;20282;-91
2023/05/11 06:56:08;;;;;;;1.53;1.07;;;;;;;11.64;94.56;95376.00;4996623;28;20204;-91
2023/05/11 06:58:35;;;;;;;0.70;0.70;;;;;;;11.75;94.28;95374.66;4994777;28;20222;-90
2023/05/11 07:01:04;;;;;;;0.97;0.70;;;;;;;11.74;93.68;95371.28;4992985;28;20639;-91
2023/05/11 07:03:35;;;;;;;0.80;0.80;;;;;;;11.75;92.87;95372.88;4992071;28;20262;-90
2023/05/11 07:06:02;;;;;;;1.80;1.70;;;;;;;11.72;93.02;95369.91;4991041;28;20200;-91
2023/05/11 07:08:32;;;;;;;3.20;2.57;;;;;;;11.71;93.51;95366.53;4990391;28;20199;-92
2023/05/11 07:10:59;;;;;;;2.63;2.00;;;;;;;11.68;93.35;95364.31;4990424;28;20212;-91
2023/05/11 07:13:25;;;;;;;1.03;0.80;;;;;;;11.67;92.90;95367.88;4992110;28;20202;-91
2023/05/11 07:16:02;;;;;;;0.63;0.63;;;;;;;11.67;93.12;95373.03;4992199;28;20200;-92
2023/05/11 07:18:29;;;;;;;0.90;0.63;;;;;;;11.62;93.96;95382.31;4992635;28;20207;-92
2023/05/11 07:20:58;;;;;;;0.50;0.50;;;;;;;11.35;94.23;95376.94;4996034;28;20242;-92
2023/05/11 07:23:24;;;;;;;0.53;0.53;;;;;;;11.36;94.14;95382.91;4991818;28;20223;-90
2023/05/11 07:25:56;;;;;;;1.03;0.63;;;;;;;11.37;94.74;95379.34;4990841;28;20211;-91
2023/05/11 07:28:28;;;;;;;0.50;0.50;;;;;;;11.41;94.47;95376.22;4991948;28;20203;-90
2023/05/11 07:30:55;;;;;;;0.90;0.90;;;;;;;11.34;95.89;95385.69;4983472;28;20211;-91
2023/05/11 07:33:23;;;;;;;0.70;0.63;;;;;;;11.45;95.82;95379.22;4979552;28;20204;-91
2023/05/11 07:35:50;;;;;;;0.70;0.70;;;;;;;11.56;96.16;95376.13;4995050;28;20320;-91
2023/05/11 07:38:27;;;;;;;;;;;;;;;;;;;;;
2023/05/11 07:40:54;;;;;;;1.50;0.67;;;;;;;11.51;94.27;95375.91;4992696;28;20278;-92
2023/05/11 07:43:20;;;;;;;0.77;0.77;;;;;;;11.54;94.10;95372.16;4990449;28;20234;-91
2023/05/11 07:45:47;;;;;;;1.27;0.70;;;;;;;11.60;94.91;95373.97;4991596;28;20211;-91
2023/05/11 07:48:13;;;;;;;0.50;0.50;;;;;;;11.65;94.55;95380.16;4982004;28;20243;-91
2023/05/11 07:50:50;;;;;;;0.63;0.63;;;;;;;11.71;95.07;95376.84;4990249;28;20223;-90
2023/05/11 07:53:16;;;;;;;0.70;0.70;;;;;;;11.69;94.35;95381.41;4989750;28;20234;-90
2023/05/11 07:55:43;;;;;;;1.20;0.80;;;;;;;11.61;95.47;95375.56;4989802;28;20203;-90
2023/05/11 07:58:09;;;;;;;1.00;0.70;;;;;;;11.60;95.58;95374.78;4991707;28;20199;-91
2023/05/11 08:00:36;;;;;;;1.73;0.93;;;;;;;11.74;96.55;95373.88;4990676;28;20218;-91
2023/05/11 08:03:03;;;;;;;2.00;1.00;;;;;;;11.88;95.83;95374.81;4990493;28;20238;-90
2023/05/11 08:05:39;;;;;;;2.20;0.97;;;;;;;11.91;95.57;95371.84;4991592;28;20199;-91
2023/05/11 08:08:07;;;;;;;0.73;0.73;;;;;;;11.94;94.75;95374.03;4992546;28;20210;-92
2023/05/11 08:10:35;;;;;;;1.13;0.80;;;;;;;11.95;94.81;95375.63;4991475;28;20247;-90
2023/05/11 08:13:02;;;;;;;0.60;0.60;;;;;;;11.90;93.80;95378.00;4992084;28;20459;-90
2023/05/11 08:15:32;;;;;;;0.83;0.70;;;;;;;12.00;94.08;95382.78;4990948;28;20677;-91
2023/05/11 08:17:59;;;;;;;1.10;0.60;;;;;;;11.88;91.67;95374.00;4992730;28;20219;-90
2023/05/11 08:20:25;;;;;;;0.57;0.50;;;;;;;11.83;93.20;95378.91;4991359;28;20219;-91
2023/05/11 08:22:52;;;;;;;0.60;0.60;;;;;;;11.75;92.17;95375.47;4991330;28;20281;-91
2023/05/11 08:25:20;;;;;;;2.77;0.90;;;;;;;11.86;93.53;95375.97;4991018;28;20237;-90
2023/05/11 08:27:46;;;;;;;0.60;0.60;;;;;;;11.86;93.35;95379.34;4990238;28;20199;-91
2023/05/11 08:30:31;;;;;;;0.70;0.70;;;;;;;11.79;92.21;95377.69;4989142;28;20227;-92
2023/05/11 08:32:58;;;;;;;1.23;0.93;;;;;;;11.75;91.93;95372.88;4989855;28;20278;-90
2023/05/11 08:35:24;;;;;;;1.40;0.90;;;;;;;11.82;93.05;95364.44;4989296;28;20269;-91
2023/05/11 08:37:51;;;;;;;0.70;0.70;;;;;;;11.94;93.71;95368.84;4989138;28;20213;-92
2023/05/11 08:40:27;;;;;;;1.13;0.70;;;;;;;12.03;93.02;95366.94;4989172;28;20891;-90
2023/05/11 08:42:58;;;;;;;1.57;1.03;;;;;;;12.02;91.47;95370.50;4949537;28;20239;-91
2023/05/11 08:45:26;;;;;;;1.00;0.90;;;;;;;12.02;91.64;95357.59;4967496;28;20204;-91
2023/05/11 08:48:14;;;;;;;0.77;0.77;;;;;;;11.95;93.00;95362.72;4971009;28;20223;-91
2023/05/11 08:51:23;;;;;;;1.27;0.80;;;;;;;12.02;92.86;95357.59;4973344;28;20231;-90
2023/05/11 08:53:51;;;;;;;1.00;0.80;;;;;;;12.13;94.12;95369.94;4973651;28;20227;-91
2023/05/11 08:56:22;;;;;;;1.17;0.90;;;;;;;12.15;92.81;95364.59;4973612;28;20294;-91
2023/05/11 08:58:51;;;;;;;6.27;4.20;;;;;;;12.11;92.94;95359.06;4990499;28;20223;-91
2023/05/11 09:01:19;;;;;;;1.97;0.90;;;;;;;12.09;90.64;95361.03;4993461;28;20199;-91
2023/05/11 09:03:47;;;;;;;1.00;0.80;;;;;;;12.16;90.93;95367.00;4992282;28;20227;-91
2023/05/11 09:06:17;;;;;;;1.07;0.70;;;;;;;12.00;91.07;95362.94;4993606;28;20211;-92
2023/05/11 09:08:44;;;;;;;1.60;0.70;;;;;;;11.86;92.55;95363.88;4992885;28;20639;-91
2023/05/11 09:11:11;;;;;;;1.50;0.70;;;;;;;11.99;93.33;95376.03;4991883;28;20200;-91
2023/05/11 09:13:38;;;;;;;0.73;0.73;;;;;;;12.08;93.27;95367.16;4993293;28;20204;-90
2023/05/11 09:16:10;;;;;;;0.57;0.57;;;;;;;12.07;92.13;95373.31;4992993;28;20226;-91
2023/05/11 09:18:48;;;;;;;1.07;0.60;;;;;;;12.16;92.60;95377.31;4992746;28;20214;-91
2023/05/11 09:21:16;;;;;;;0.83;0.70;;;;;;;12.22;92.59;95373.19;4991965;28;20684;-91
2023/05/11 09:23:43;;;;;;;0.63;0.60;;;;;;;12.22;91.52;95373.19;4992877;28;20219;-90
2023/05/11 09:26:14;;;;;;;0.60;0.60;;;;;;;12.10;91.10;95370.34;4992935;28;20214;-90
2023/05/11 09:28:51;;;;;;;0.50;0.50;;;;;;;12.14;92.79;95368.16;4992278;28;20562;-90
2023/05/11 09:31:37;;;;;;;0.60;0.60;;;;;;;12.18;91.61;95365.03;4992922;28;20577;-90
2023/05/11 09:34:15;;;;;;;0.87;0.70;;;;;;;12.26;91.41;95364.88;4992303;28;20684;-91
2023/05/11 09:36:41;;;;;;;0.80;0.60;;;;;;;12.25;92.21;95367.66;4992116;28;20263;-91
2023/05/11 09:39:08;;;;;;;1.10;0.80;;;;;;;12.24;92.12;95360.88;4992320;28;20226;-91
2023/05/11 09:41:35;;;;;;;0.50;0.50;;;;;;;12.21;91.52;95362.06;4992545;28;20203;-91
2023/05/11 09:44:14;;;;;;;0.60;0.60;;;;;;;12.32;92.29;95361.50;4992698;28;20220;-91
2023/05/11 09:46:44;;;;;;;5.60;4.80;;;;;;;12.29;91.08;95363.69;4992041;28;20199;-91
2023/05/11 09:49:11;;;;;;;9.63;8.30;;;;;;;12.31;92.09;95359.13;4993274;28;20220;-90
2023/05/11 09:51:42;;;;;;;3.33;1.23;;;;;;;12.29;91.45;95355.94;4991463;28;20257;-91
2023/05/11 09:54:19;;;;;;;0.60;0.60;;;;;;;12.28;91.45;95357.75;4992255;28;20204;-91
2023/05/11 09:56:47;;;;;;;0.70;0.70;;;;;;;12.22;92.73;95350.75;4991839;28;20221;-91
2023/05/11 09:59:38;;;;;;;;;;;;;;;;;;;;;
2023/05/11 10:02:33;;;;;;;0.67;0.67;;;;;;;12.41;92.83;95357.78;4990395;28;20657;-91
2023/05/11 10:05:10;;;;;;;0.83;0.50;;;;;;;12.50;93.19;95349.88;4986035;28;20235;-90
2023/05/11 10:08:05;;;;;;;0.60;0.60;;;;;;;12.40;91.69;95355.38;4991721;28;20294;-90
2023/05/11 10:10:34;;;;;;;0.60;0.60;;;;;;;12.30;92.33;95344.63;4978047;28;20318;-90
2023/05/11 10:13:02;;;;;;;0.63;0.63;;;;;;;12.29;90.66;95349.00;4988648;28;20215;-90
2023/05/11 10:15:32;;;;;;;1.53;0.60;;;;;;;12.14;90.60;95350.09;4991622;28;20437;-91
2023/05/11 10:18:00;;;;;;;0.60;0.60;;;;;;;12.10;91.13;95347.94;4991334;28;20200;-90
2023/05/11 10:20:27;;;;;;;1.10;0.70;;;;;;;12.17;91.33;95344.56;4991302;28;20254;-91
2023/05/11 10:22:55;;;;;;;0.87;0.70;;;;;;;12.04;90.18;95350.47;5003060;28;20239;-91
2023/05/11 10:25:37;;;;;;;0.70;0.70;;;;;;;12.08;90.39;95346.53;4991587;28;20250;-90
2023/05/11 10:28:05;;;;;;;1.13;0.70;;;;;;;12.05;91.19;95354.66;4989266;28;20207;-90
2023/05/11 10:31:00;;;;;;;1.60;0.53;;;;;;;12.15;90.71;95349.91;4992723;28;20227;-92
2023/05/11 10:40:18;;;;;;;0.50;0.50;;;;;;;12.27;91.91;95340.66;4981204;23;20236;-92
2023/05/11 10:43:19;;;;;;;0.60;0.60;;;;;;;12.31;91.63;95343.66;4963962;28;20227;-92
2023/05/11 10:52:22;;;;;;;0.60;0.60;;;;;;;12.51;93.72;95338.56;4703660;26;20219;-92
2023/05/11 10:55:17;;;;;;;1.40;1.17;;;;;;;12.51;92.56;95338.56;4970413;28;20275;-91
2023/05/11 10:58:12;;;;;;;0.67;0.67;;;;;;;12.41;92.22;95339.69;4972124;28;20204;-91
2023/05/11 11:04:07;;;;;;;0.73;0.70;;;;;;;12.44;91.75;95341.09;4964503;28;20255;-91
2023/05/11 11:12:18;;;;;;;0.70;0.70;;;;;;;12.51;92.02;95348.88;5140337;23;20238;-91
2023/05/11 11:18:22;;;;;;;0.77;0.77;;;;;;;12.62;92.50;95343.94;4931228;29;20578;-92
2023/05/11 11:20:51;;;;;;;1.33;0.70;;;;;;;12.65;93.75;95332.44;4930437;29;20217;-91
2023/05/11 11:24:03;;;;;;;0.60;0.60;;;;;;;12.69;92.23;95337.03;4929453;29;20630;-91
2023/05/11 11:27:03;;;;;;;0.80;0.80;;;;;;;12.63;91.80;95342.94;4929702;29;20212;-91
2023/05/11 11:29:40;;;;;;;0.70;0.70;;;;;;;12.60;91.16;95340.75;4845111;29;20236;-91
2023/05/11 11:32:26;;;;;;;1.03;0.77;;;;;;;12.63;91.83;95337.78;4835309;29;20290;-91
2023/05/11 11:34:58;;;;;;;0.77;0.77;;;;;;;12.63;92.51;95340.38;4835711;29;20209;-91
2023/05/11 11:37:25;;;;;;;1.10;0.80;;;;;;;12.66;91.94;95342.56;4835597;29;20219;-91
2023/05/11 11:40:02;;;;;;;1.43;1.13;;;;;;;12.68;92.49;95335.44;4857683;28;20227;-91
2023/05/11 11:42:36;;;;;;;4.90;4.40;;;;;;;12.69;92.84;95334.44;4988947;28;20201;-91
2023/05/11 11:45:55;;;;;;;1.50;1.40;;;;;;;12.69;92.56;95341.38;4989496;28;20228;-92
2023/05/11 11:48:34;;;;;;;0.70;0.70;;;;;;;12.65;92.50;95335.81;4976809;28;20207;-91
2023/05/11 11:51:14;;;;;;;0.73;0.70;;;;;;;12.69;93.00;95334.44;4986428;28;20191;-91
2023/05/11 11:54:13;;;;;;;0.80;0.80;;;;;;;12.77;93.92;95341.97;4990190;28;20290;-92
2023/05/11 11:57:31;;;;;;;1.53;0.70;;;;;;;12.78;93.73;95340.19;4956906;28;20207;-92
2023/05/11 12:00:38;;;;;;;1.63;0.83;;;;;;;12.78;93.33;95335.03;4928316;29;20261;-91
2023/05/11 12:03:45;;;;;;;2.57;1.10;;;;;;;12.83;92.17;95337.03;4928965;28;20307;-91
2023/05/11 12:06:24;;;;;;;;;;;;;;;;;;;;;
2023/05/11 12:14:14;;;;;;;2.20;1.03;;;;;;;12.95;92.38;95333.66;929971;26;20505;-90
2023/05/11 12:16:41;;;;;;;1.90;1.07;;;;;;;12.92;92.00;95333.25;4931683;29;20245;-92
2023/05/11 12:19:08;;;;;;;1.17;0.80;;;;;;;12.89;90.83;95336.25;4931870;29;20643;-89
2023/05/11 12:21:35;;;;;;;2.43;0.83;;;;;;;12.86;90.65;95327.09;4931418;29;20579;-92
2023/05/11 12:24:07;;;;;;;0.97;0.80;;;;;;;12.87;89.93;95328.69;4931097;29;20244;-91
2023/05/11 12:26:35;;;;;;;10.30;8.80;;;;;;;12.86;90.68;95331.47;4923464;29;20604;-91
2023/05/11 12:29:08;;;;;;;18.23;16.30;;;;;;;12.74;93.04;95323.50;4912313;29;20227;-90
2023/05/11 12:31:36;;;;;;;2.07;1.87;;;;;;;12.77;91.07;95333.44;4912844;29;20210;-91
2023/05/11 12:34:02;;;;;;;1.43;0.83;;;;;;;12.73;89.83;95334.81;4912201;29;20209;-91
2023/05/11 12:36:49;;;;;;;1.23;0.60;;;;;;;12.59;89.66;95334.00;4912510;29;20293;-93
2023/05/11 12:39:40;;;;;;;1.07;0.60;;;;;;;12.64;89.70;95325.66;4906585;29;20233;-90
2023/05/11 12:42:06;;;;;;;0.60;0.60;;;;;;;12.64;90.38;95329.06;4928276;29;20197;-91
2023/05/11 12:44:33;;;;;;;1.27;0.77;;;;;;;12.67;89.77;95325.28;4928770;29;20312;-92
2023/05/11 12:47:00;;;;;;;0.73;0.70;;;;;;;12.77;91.03;95320.53;4928129;29;20284;-91
2023/05/11 12:49:42;;;;;;;0.67;0.67;;;;;;;12.78;91.31;95315.16;4928394;29;20229;-90
2023/05/11 12:52:11;;;;;;;1.10;0.80;;;;;;;12.82;92.52;95317.34;4927237;29;20205;-91
2023/05/11 12:54:39;;;;;;;1.73;0.83;;;;;;;12.82;93.07;95317.34;4928423;29;20224;-91
2023/05/11 12:57:15;;;;;;;0.70;0.70;;;;;;;12.82;91.45;95317.34;4927843;29;20209;-91
2023/05/11 12:59:42;;;;;;;0.70;0.70;;;;;;;12.59;90.19;95313.34;4927535;29;20339;-91
2023/05/11 13:02:16;;;;;;;0.80;0.60;;;;;;;12.60;91.34;95316.72;4929412;29;20590;-90
2023/05/11 13:04:44;;;;;;;0.93;0.80;;;;;;;12.56;91.03;95303.38;4931537;29;20231;-91
2023/05/11 13:07:24;;;;;;;0.80;0.60;;;;;;;12.58;90.94;95309.16;4927737;29;20292;-92
2023/05/11 13:09:56;;;;;;;0.70;0.70;;;;;;;12.58;91.73;95304.00;4928402;29;20225;-91
2023/05/11 13:12:24;;;;;;;0.97;0.90;;;;;;;12.61;91.76;95310.56;4928206;29;20209;-90
2023/05/11 13:15:05;;;;;;;0.80;0.80;;;;;;;12.68;92.06;95303.63;4930631;29;20210;-90
2023/05/11 13:17:32;;;;;;;0.80;0.80;;;;;;;12.72;92.32;95297.84;4930290;29;20213;-91
2023/05/11 13:20:20;;;;;;;0.63;0.63;;;;;;;12.80;93.06;95297.69;4928083;29;20225;-90